sensor_id;sensor_type;location;lat;lon;timestamp;pressure;altitude;pressure_sealevel;temperature;humidity
28921;BME280;16035;53.594;9.952;2022-10-31T00:01:30;101765.34;;;14.12;73.04
28921;BME280;16035;53.594;9.952;2022-10-31T00:03:30;101768.13;;;14.18;72.83
28921;BME280;16035;53.594;9.952;2022-10-31T00:05:31;101775.00;;;14.20;73.06
28921;BME280;16035;53.594;9.952;2022-10-31T00:07:31;101785.16;;;14.25;73.14
28921;BME280;16035;53.594;9.952;2022-10-31T00:09:31;101781.34;;;14.26;73.48
28921;BME280;16035;53.594;9.952;2022-10-31T00:11:32;101785.44;;;14.28;73.00
28921;BME280;16035;53.594;9.952;2022-10-31T00:13:32;101779.47;;;14.31;73.09
28921;BME280;16035;53.594;9.952;2022-10-31T00:15:39;101792.34;;;14.36;73.11
28921;BME280;16035;53.594;9.952;2022-10-31T00:17:40;101782.53;;;14.40;73.35
28921;BME280;16035;53.594;9.952;2022-10-31T00:19:40;101791.31;;;14.42;73.46
28921;BME280;16035;53.594;9.952;2022-10-31T00:21:41;101786.69;;;14.43;73.30
28921;BME280;16035;53.594;9.952;2022-10-31T00:23:41;101798.44;;;14.43;73.20
28921;BME280;16035;53.594;9.952;2022-10-31T00:25:41;101788.03;;;14.45;73.25
28921;BME280;16035;53.594;9.952;2022-10-31T00:27:42;101786.47;;;14.49;73.57
28921;BME280;16035;53.594;9.952;2022-10-31T00:29:42;101787.88;;;14.52;73.59
28921;BME280;16035;53.594;9.952;2022-10-31T00:31:42;101795.25;;;14.51;73.22
28921;BME280;16035;53.594;9.952;2022-10-31T00:33:42;101791.66;;;14.51;73.38
28921;BME280;16035;53.594;9.952;2022-10-31T00:35:49;101791.13;;;14.49;73.48
28921;BME280;16035;53.594;9.952;2022-10-31T00:37:49;101793.06;;;14.53;73.65
28921;BME280;16035;53.594;9.952;2022-10-31T00:39:50;101798.03;;;14.56;73.50
28921;BME280;16035;53.594;9.952;2022-10-31T00:41:50;101795.00;;;14.58;73.58
28921;BME280;16035;53.594;9.952;2022-10-31T00:43:50;101790.94;;;14.60;73.20
28921;BME280;16035;53.594;9.952;2022-10-31T00:45:51;101778.31;;;14.59;73.31
28921;BME280;16035;53.594;9.952;2022-10-31T00:47:51;101767.69;;;14.63;73.78
28921;BME280;16035;53.594;9.952;2022-10-31T00:49:51;101772.06;;;14.64;73.38
28921;BME280;16035;53.594;9.952;2022-10-31T00:51:52;101777.53;;;14.64;73.51
28921;BME280;16035;53.594;9.952;2022-10-31T00:53:52;101779.47;;;14.63;73.56
28921;BME280;16035;53.594;9.952;2022-10-31T00:55:52;101789.84;;;14.61;73.87
28921;BME280;16035;53.594;9.952;2022-10-31T00:57:53;101788.47;;;14.64;73.63
28921;BME280;16035;53.594;9.952;2022-10-31T00:59:53;101789.06;;;14.66;73.82
28921;BME280;16035;53.594;9.952;2022-10-31T01:01:53;101787.41;;;14.65;73.69
28921;BME280;16035;53.594;9.952;2022-10-31T01:03:54;101789.03;;;14.61;73.54
28921;BME280;16035;53.594;9.952;2022-10-31T01:05:58;101789.84;;;14.61;73.73
28921;BME280;16035;53.594;9.952;2022-10-31T01:07:58;101793.41;;;14.62;73.60
28921;BME280;16035;53.594;9.952;2022-10-31T01:09:59;101795.84;;;14.58;73.73
28921;BME280;16035;53.594;9.952;2022-10-31T01:11:59;101812.00;;;14.60;73.73
28921;BME280;16035;53.594;9.952;2022-10-31T01:13:59;101813.34;;;14.57;74.05
28921;BME280;16035;53.594;9.952;2022-10-31T01:16:01;101809.78;;;14.57;73.74
28921;BME280;16035;53.594;9.952;2022-10-31T01:18:01;101819.59;;;14.53;73.82
28921;BME280;16035;53.594;9.952;2022-10-31T01:20:03;101818.22;;;14.55;73.89
28921;BME280;16035;53.594;9.952;2022-10-31T01:22:03;101815.50;;;14.55;74.18
28921;BME280;16035;53.594;9.952;2022-10-31T01:24:04;101825.41;;;14.61;74.31
28921;BME280;16035;53.594;9.952;2022-10-31T01:26:13;101821.06;;;14.65;73.92
28921;BME280;16035;53.594;9.952;2022-10-31T01:28:13;101823.84;;;14.71;74.09
28921;BME280;16035;53.594;9.952;2022-10-31T01:30:14;101826.56;;;14.71;74.43
28921;BME280;16035;53.594;9.952;2022-10-31T01:32:14;101826.84;;;14.69;74.02
28921;BME280;16035;53.594;9.952;2022-10-31T01:34:16;101831.53;;;14.74;74.08
28921;BME280;16035;53.594;9.952;2022-10-31T01:36:21;101826.91;;;14.79;74.37
28921;BME280;16035;53.594;9.952;2022-10-31T01:38:21;101836.56;;;14.87;74.00
28921;BME280;16035;53.594;9.952;2022-10-31T01:40:22;101829.13;;;14.82;74.04
28921;BME280;16035;53.594;9.952;2022-10-31T01:42:23;101825.03;;;14.85;73.84
28921;BME280;16035;53.594;9.952;2022-10-31T01:46:27;101825.34;;;14.88;74.16
28921;BME280;16035;53.594;9.952;2022-10-31T01:48:29;101830.81;;;14.88;74.07
28921;BME280;16035;53.594;9.952;2022-10-31T01:50:35;101836.56;;;14.87;74.36
28921;BME280;16035;53.594;9.952;2022-10-31T01:52:44;101839.03;;;14.88;74.31
28921;BME280;16035;53.594;9.952;2022-10-31T01:55:01;101843.38;;;14.84;74.43
28921;BME280;16035;53.594;9.952;2022-10-31T01:57:04;101849.38;;;14.86;74.37
28921;BME280;16035;53.594;9.952;2022-10-31T01:59:08;101844.47;;;14.83;74.37
28921;BME280;16035;53.594;9.952;2022-10-31T02:01:12;101844.47;;;14.83;74.10
28921;BME280;16035;53.594;9.952;2022-10-31T02:03:15;101850.19;;;14.82;74.51
28921;BME280;16035;53.594;9.952;2022-10-31T02:05:18;101847.72;;;14.80;74.19
28921;BME280;16035;53.594;9.952;2022-10-31T02:07:31;101844.97;;;14.80;74.75
28921;BME280;16035;53.594;9.952;2022-10-31T02:09:34;101844.97;;;14.80;74.62
28921;BME280;16035;53.594;9.952;2022-10-31T02:11:36;101852.38;;;14.80;74.78
28921;BME280;16035;53.594;9.952;2022-10-31T02:13:37;101848.53;;;14.81;74.76
28921;BME280;16035;53.594;9.952;2022-10-31T02:15:38;101852.38;;;14.80;74.69
28921;BME280;16035;53.594;9.952;2022-10-31T02:17:39;101857.81;;;14.75;74.50
28921;BME280;16035;53.594;9.952;2022-10-31T02:22:16;101858.91;;;14.74;74.89
28921;BME280;16035;53.594;9.952;2022-10-31T02:24:45;101852.84;;;14.72;74.35
28921;BME280;16035;53.594;9.952;2022-10-31T02:26:58;101859.41;;;14.71;74.43
28921;BME280;16035;53.594;9.952;2022-10-31T02:31:50;101858.59;;;14.70;74.68
28921;BME280;16035;53.594;9.952;2022-10-31T02:34:05;101865.97;;;14.70;74.73
28921;BME280;16035;53.594;9.952;2022-10-31T02:36:16;101871.72;;;14.73;74.97
28921;BME280;16035;53.594;9.952;2022-10-31T02:38:27;101873.44;;;14.79;74.79
28921;BME280;16035;53.594;9.952;2022-10-31T02:40:34;101879.75;;;14.85;74.79
28921;BME280;16035;53.594;9.952;2022-10-31T02:42:47;101866.66;;;14.87;75.07
28921;BME280;16035;53.594;9.952;2022-10-31T02:47:09;101876.28;;;14.95;75.03
28921;BME280;16035;53.594;9.952;2022-10-31T02:49:27;101877.09;;;14.95;75.06
28921;BME280;16035;53.594;9.952;2022-10-31T02:51:28;101872.47;;;14.96;74.88
28921;BME280;16035;53.594;9.952;2022-10-31T02:53:36;101874.66;;;14.99;75.26
28921;BME280;16035;53.594;9.952;2022-10-31T02:57:39;101871.94;;;14.99;75.05
28921;BME280;16035;53.594;9.952;2022-10-31T02:59:48;101879.59;;;14.97;75.28
28921;BME280;16035;53.594;9.952;2022-10-31T03:06:39;101880.09;;;14.94;75.07
28921;BME280;16035;53.594;9.952;2022-10-31T03:10:55;101881.75;;;14.95;75.67
28921;BME280;16035;53.594;9.952;2022-10-31T03:15:20;101891.34;;;14.97;75.70
28921;BME280;16035;53.594;9.952;2022-10-31T03:17:26;101886.44;;;14.99;75.64
28921;BME280;16035;53.594;9.952;2022-10-31T03:19:41;101888.94;;;15.01;75.15
28921;BME280;16035;53.594;9.952;2022-10-31T03:24:18;101898.47;;;14.98;75.58
28921;BME280;16035;53.594;9.952;2022-10-31T03:26:21;101905.88;;;14.98;75.31
28921;BME280;16035;53.594;9.952;2022-10-31T03:28:27;101908.06;;;14.96;75.31
28921;BME280;16035;53.594;9.952;2022-10-31T03:30:30;101903.09;;;14.93;75.41
28921;BME280;16035;53.594;9.952;2022-10-31T03:32:38;101905.00;;;14.92;75.53
28921;BME280;16035;53.594;9.952;2022-10-31T03:34:42;101905.00;;;14.92;75.24
28921;BME280;16035;53.594;9.952;2022-10-31T03:36:44;101900.09;;;14.94;75.48
28921;BME280;16035;53.594;9.952;2022-10-31T03:38:47;101909.41;;;14.93;75.48
28921;BME280;16035;53.594;9.952;2022-10-31T03:40:48;101912.94;;;14.94;75.40
28921;BME280;16035;53.594;9.952;2022-10-31T03:42:54;101926.91;;;14.92;75.28
28921;BME280;16035;53.594;9.952;2022-10-31T03:45:13;101922.22;;;14.87;75.40
28921;BME280;16035;53.594;9.952;2022-10-31T03:47:15;101919.72;;;14.86;75.27
28921;BME280;16035;53.594;9.952;2022-10-31T03:49:16;101923.00;;;14.83;75.71
28921;BME280;16035;53.594;9.952;2022-10-31T03:51:24;101923.56;;;14.85;75.60
28921;BME280;16035;53.594;9.952;2022-10-31T03:53:33;101918.09;;;14.85;75.89
28921;BME280;16035;53.594;9.952;2022-10-31T03:55:47;101924.94;;;14.87;75.57
28921;BME280;16035;53.594;9.952;2022-10-31T03:57:59;101933.16;;;14.87;76.00
28921;BME280;16035;53.594;9.952;2022-10-31T04:00:13;101943.84;;;14.89;76.10
28921;BME280;16035;53.594;9.952;2022-10-31T04:02:16;101945.25;;;14.91;76.05
28921;BME280;16035;53.594;9.952;2022-10-31T04:04:19;101943.81;;;14.84;75.62
28921;BME280;16035;53.594;9.952;2022-10-31T04:06:21;101943.22;;;14.82;75.58
28921;BME280;16035;53.594;9.952;2022-10-31T04:08:26;101943.75;;;14.79;75.94
28921;BME280;16035;53.594;9.952;2022-10-31T04:10:28;101942.13;;;14.78;75.78
28921;BME280;16035;53.594;9.952;2022-10-31T04:12:29;101944.28;;;14.76;76.16
28921;BME280;16035;53.594;9.952;2022-10-31T04:14:32;101953.06;;;14.78;75.81
28921;BME280;16035;53.594;9.952;2022-10-31T04:16:35;101952.22;;;14.77;76.01
28921;BME280;16035;53.594;9.952;2022-10-31T04:18:35;101952.22;;;14.77;76.16
28921;BME280;16035;53.594;9.952;2022-10-31T04:20:38;101953.63;;;14.80;76.04
28921;BME280;16035;53.594;9.952;2022-10-31T04:22:39;101949.22;;;14.79;76.26
28921;BME280;16035;53.594;9.952;2022-10-31T04:24:40;101951.97;;;14.79;76.04
28921;BME280;16035;53.594;9.952;2022-10-31T04:26:40;101948.41;;;14.78;75.91
28921;BME280;16035;53.594;9.952;2022-10-31T04:28:41;101951.16;;;14.78;75.84
28921;BME280;16035;53.594;9.952;2022-10-31T04:30:41;101957.44;;;14.79;75.94
28921;BME280;16035;53.594;9.952;2022-10-31T04:32:41;101951.97;;;14.79;76.12
28921;BME280;16035;53.594;9.952;2022-10-31T04:34:41;101958.25;;;14.79;76.35
28921;BME280;16035;53.594;9.952;2022-10-31T04:36:42;101961.81;;;14.80;76.63
28921;BME280;16035;53.594;9.952;2022-10-31T04:38:42;101966.78;;;14.83;76.65
28921;BME280;16035;53.594;9.952;2022-10-31T04:40:42;101964.59;;;14.85;76.56
28921;BME280;16035;53.594;9.952;2022-10-31T04:42:43;101957.81;;;14.87;76.45
28921;BME280;16035;53.594;9.952;2022-10-31T04:44:43;101960.53;;;14.87;76.31
28921;BME280;16035;53.594;9.952;2022-10-31T04:46:43;101972.03;;;14.89;76.17
28921;BME280;16035;53.594;9.952;2022-10-31T04:48:44;101966.81;;;14.88;75.83
28921;BME280;16035;53.594;9.952;2022-10-31T04:50:44;101964.28;;;14.81;75.82
28921;BME280;16035;53.594;9.952;2022-10-31T04:52:45;101966.75;;;14.78;76.24
28921;BME280;16035;53.594;9.952;2022-10-31T04:54:46;101964.56;;;14.80;76.38
28921;BME280;16035;53.594;9.952;2022-10-31T04:56:46;101966.75;;;14.78;76.55
28921;BME280;16035;53.594;9.952;2022-10-31T04:58:46;101969.75;;;14.81;76.77
28921;BME280;16035;53.594;9.952;2022-10-31T05:00:47;101962.38;;;14.82;76.56
28921;BME280;16035;53.594;9.952;2022-10-31T05:02:49;101973.91;;;14.84;76.66
28921;BME280;16035;53.594;9.952;2022-10-31T05:04:49;101978.28;;;14.85;76.39
28921;BME280;16035;53.594;9.952;2022-10-31T05:06:50;101971.44;;;14.82;76.26
28921;BME280;16035;53.594;9.952;2022-10-31T05:08:50;101969.22;;;14.79;76.40
28921;BME280;16035;53.594;9.952;2022-10-31T05:10:50;101967.81;;;14.77;76.34
28921;BME280;16035;53.594;9.952;2022-10-31T05:12:56;101966.97;;;14.76;76.58
28921;BME280;16035;53.594;9.952;2022-10-31T05:14:57;101977.09;;;14.76;76.61
28921;BME280;16035;53.594;9.952;2022-10-31T05:16:57;101970.00;;;14.75;76.36
28921;BME280;16035;53.594;9.952;2022-10-31T05:18:58;101962.56;;;14.70;76.28
28921;BME280;16035;53.594;9.952;2022-10-31T05:20:58;101971.00;;;14.69;76.76
28921;BME280;16035;53.594;9.952;2022-10-31T05:23:02;101971.09;;;14.74;77.03
28921;BME280;16035;53.594;9.952;2022-10-31T05:25:03;101971.38;;;14.77;76.81
28921;BME280;16035;53.594;9.952;2022-10-31T05:27:03;101967.28;;;14.80;76.90
28921;BME280;16035;53.594;9.952;2022-10-31T05:29:03;101980.47;;;14.83;76.64
28921;BME280;16035;53.594;9.952;2022-10-31T05:31:04;101977.97;;;14.81;76.39
28921;BME280;16035;53.594;9.952;2022-10-31T05:33:04;101969.22;;;14.79;76.72
28921;BME280;16035;53.594;9.952;2022-10-31T05:35:10;101971.69;;;14.81;76.99
28921;BME280;16035;53.594;9.952;2022-10-31T05:37:10;101970.91;;;14.85;76.82
28921;BME280;16035;53.594;9.952;2022-10-31T05:39:10;101968.16;;;14.85;76.79
28921;BME280;16035;53.594;9.952;2022-10-31T05:41:11;101971.72;;;14.86;76.77
28921;BME280;16035;53.594;9.952;2022-10-31T05:43:11;101971.72;;;14.86;76.47
28921;BME280;16035;53.594;9.952;2022-10-31T05:45:14;101962.44;;;14.87;77.02
28921;BME280;16035;53.594;9.952;2022-10-31T05:47:15;101961.34;;;14.88;76.54
28921;BME280;16035;53.594;9.952;2022-10-31T05:49:15;101971.75;;;14.91;76.30
28921;BME280;16035;53.594;9.952;2022-10-31T05:51:17;101972.00;;;14.84;76.45
28921;BME280;16035;53.594;9.952;2022-10-31T05:53:17;101974.41;;;14.81;76.41
28921;BME280;16035;53.594;9.952;2022-10-31T05:55:18;101979.56;;;14.77;76.30
28921;BME280;16035;53.594;9.952;2022-10-31T05:57:18;101974.09;;;14.77;76.60
28921;BME280;16035;53.594;9.952;2022-10-31T05:59:18;101979.56;;;14.77;76.59
28921;BME280;16035;53.594;9.952;2022-10-31T06:01:19;101974.97;;;14.78;76.74
28921;BME280;16035;53.594;9.952;2022-10-31T06:03:19;101975.50;;;14.80;77.13
28921;BME280;16035;53.594;9.952;2022-10-31T06:05:19;101977.16;;;14.81;77.02
28921;BME280;16035;53.594;9.952;2022-10-31T06:07:19;101984.03;;;14.83;77.06
28921;BME280;16035;53.594;9.952;2022-10-31T06:09:20;101989.22;;;14.85;76.84
28921;BME280;16035;53.594;9.952;2022-10-31T06:11:20;101991.69;;;14.86;77.12
28921;BME280;16035;53.594;9.952;2022-10-31T06:13:20;101987.91;;;14.87;77.19
28921;BME280;16035;53.594;9.952;2022-10-31T06:15:21;101997.50;;;14.90;76.92
28921;BME280;16035;53.594;9.952;2022-10-31T06:17:22;101988.44;;;14.89;77.38
28921;BME280;16035;53.594;9.952;2022-10-31T06:19:22;101998.06;;;14.92;77.01
28921;BME280;16035;53.594;9.952;2022-10-31T06:21:23;102001.63;;;14.93;76.68
28921;BME280;16035;53.594;9.952;2022-10-31T06:23:23;101998.84;;;14.87;76.80
28921;BME280;16035;53.594;9.952;2022-10-31T06:25:23;101998.59;;;14.89;76.94
28921;BME280;16035;53.594;9.952;2022-10-31T06:27:24;102004.06;;;14.89;77.02
28921;BME280;16035;53.594;9.952;2022-10-31T06:29:25;101997.50;;;14.90;77.06
28921;BME280;16035;53.594;9.952;2022-10-31T06:31:25;101992.28;;;14.88;77.29
28921;BME280;16035;53.594;9.952;2022-10-31T06:33:25;101987.13;;;14.92;77.05
28921;BME280;16035;53.594;9.952;2022-10-31T06:35:26;101991.00;;;14.96;77.08
28921;BME280;16035;53.594;9.952;2022-10-31T06:37:26;101988.50;;;14.95;76.71
28921;BME280;16035;53.594;9.952;2022-10-31T06:39:26;101991.00;;;14.96;77.32
28921;BME280;16035;53.594;9.952;2022-10-31T06:41:27;102001.69;;;14.98;77.13
28921;BME280;16035;53.594;9.952;2022-10-31T06:43:27;102002.22;;;15.00;77.11
28921;BME280;16035;53.594;9.952;2022-10-31T06:45:28;102007.19;;;15.03;77.14
28921;BME280;16035;53.594;9.952;2022-10-31T06:47:28;102008.84;;;15.04;76.82
28921;BME280;16035;53.594;9.952;2022-10-31T06:49:28;102012.94;;;15.01;76.95
28921;BME280;16035;53.594;9.952;2022-10-31T06:51:29;102013.50;;;15.03;77.20
28921;BME280;16035;53.594;9.952;2022-10-31T06:53:29;102017.06;;;15.04;77.21
28921;BME280;16035;53.594;9.952;2022-10-31T06:55:29;102025.53;;;15.02;77.02
28921;BME280;16035;53.594;9.952;2022-10-31T06:57:30;102026.34;;;15.03;77.27
28921;BME280;16035;53.594;9.952;2022-10-31T06:59:30;102030.75;;;15.04;77.05
28921;BME280;16035;53.594;9.952;2022-10-31T07:01:31;102040.88;;;15.03;77.15
28921;BME280;16035;53.594;9.952;2022-10-31T07:03:31;102037.31;;;15.03;77.15
28921;BME280;16035;53.594;9.952;2022-10-31T07:05:32;102040.56;;;15.00;76.70
28921;BME280;16035;53.594;9.952;2022-10-31T07:07:32;102042.47;;;14.99;77.06
28921;BME280;16035;53.594;9.952;2022-10-31T07:09:33;102046.88;;;15.00;77.44
28921;BME280;16035;53.594;9.952;2022-10-31T07:11:33;102046.34;;;15.03;77.16
28921;BME280;16035;53.594;9.952;2022-10-31T07:13:33;102045.00;;;15.06;77.06
28921;BME280;16035;53.594;9.952;2022-10-31T07:15:36;102047.47;;;15.07;77.06
28921;BME280;16035;53.594;9.952;2022-10-31T07:17:36;102052.94;;;15.07;77.21
28921;BME280;16035;53.594;9.952;2022-10-31T07:19:37;102054.59;;;15.08;77.10
28921;BME280;16035;53.594;9.952;2022-10-31T07:21:37;102057.59;;;15.07;77.06
28921;BME280;16035;53.594;9.952;2022-10-31T07:23:37;102063.91;;;15.07;77.42
28921;BME280;16035;53.594;9.952;2022-10-31T07:25:38;102060.34;;;15.07;76.88
28921;BME280;16035;53.594;9.952;2022-10-31T07:27:40;102061.38;;;15.01;76.80
28921;BME280;16035;53.594;9.952;2022-10-31T07:29:40;102060.56;;;15.00;76.55
28921;BME280;16035;53.594;9.952;2022-10-31T07:31:40;102055.31;;;14.99;76.85
28921;BME280;16035;53.594;9.952;2022-10-31T07:33:41;102068.19;;;14.98;76.70
28921;BME280;16035;53.594;9.952;2022-10-31T07:35:41;102067.06;;;14.94;76.70
28921;BME280;16035;53.594;9.952;2022-10-31T07:37:42;102068.16;;;14.93;77.14
28921;BME280;16035;53.594;9.952;2022-10-31T07:39:42;102074.13;;;14.90;76.88
28921;BME280;16035;53.594;9.952;2022-10-31T07:41:42;102067.00;;;14.89;76.91
28921;BME280;16035;53.594;9.952;2022-10-31T07:43:43;102066.69;;;14.85;76.68
28921;BME280;16035;53.594;9.952;2022-10-31T07:45:43;102069.09;;;14.82;76.97
28921;BME280;16035;53.594;9.952;2022-10-31T07:47:49;102069.09;;;14.82;77.36
28921;BME280;16035;53.594;9.952;2022-10-31T07:49:50;102079.56;;;14.85;77.01
28921;BME280;16035;53.594;9.952;2022-10-31T07:51:50;102080.06;;;14.82;76.67
28921;BME280;16035;53.594;9.952;2022-10-31T07:53:51;102085.78;;;14.80;76.89
28921;BME280;16035;53.594;9.952;2022-10-31T07:55:51;102079.50;;;14.80;76.94
28921;BME280;16035;53.594;9.952;2022-10-31T07:57:59;102083.06;;;14.80;77.19
28921;BME280;16035;53.594;9.952;2022-10-31T08:00:00;102082.56;;;14.83;77.23
28921;BME280;16035;53.594;9.952;2022-10-31T08:02:00;102073.81;;;14.86;77.05
28921;BME280;16035;53.594;9.952;2022-10-31T08:04:00;102080.69;;;14.89;76.68
28921;BME280;16035;53.594;9.952;2022-10-31T08:06:00;102079.28;;;14.86;76.83
28921;BME280;16035;53.594;9.952;2022-10-31T08:08:01;102083.16;;;14.90;77.10
28921;BME280;16035;53.594;9.952;2022-10-31T08:10:02;102077.44;;;14.92;77.07
28921;BME280;16035;53.594;9.952;2022-10-31T08:12:02;102072.78;;;14.93;77.16
28921;BME280;16035;53.594;9.952;2022-10-31T08:14:03;102076.69;;;14.97;77.35
28921;BME280;16035;53.594;9.952;2022-10-31T08:16:03;102074.53;;;15.04;77.08
28921;BME280;16035;53.594;9.952;2022-10-31T08:18:05;102070.50;;;15.11;77.36
28921;BME280;16035;53.594;9.952;2022-10-31T08:20:06;102073.06;;;15.18;77.25
28921;BME280;16035;53.594;9.952;2022-10-31T08:22:06;102073.09;;;15.23;77.07
28921;BME280;16035;53.594;9.952;2022-10-31T08:24:07;102073.09;;;15.23;76.96
28921;BME280;16035;53.594;9.952;2022-10-31T08:26:07;102066.81;;;15.23;76.41
28921;BME280;16035;53.594;9.952;2022-10-31T08:28:09;102072.00;;;15.24;76.59
28921;BME280;16035;53.594;9.952;2022-10-31T08:30:10;102069.28;;;15.24;75.99
28921;BME280;16035;53.594;9.952;2022-10-31T08:32:11;102068.41;;;15.19;76.30
28921;BME280;16035;53.594;9.952;2022-10-31T08:34:11;102068.97;;;15.21;76.61
28921;BME280;16035;53.594;9.952;2022-10-31T08:36:11;102076.13;;;15.27;76.26
28921;BME280;16035;53.594;9.952;2022-10-31T08:38:12;102075.31;;;15.26;76.01
28921;BME280;16035;53.594;9.952;2022-10-31T08:40:13;102080.53;;;15.28;76.27
28921;BME280;16035;53.594;9.952;2022-10-31T08:42:13;102088.28;;;15.36;76.85
28921;BME280;16035;53.594;9.952;2022-10-31T08:44:13;102081.16;;;15.40;76.50
28921;BME280;16035;53.594;9.952;2022-10-31T08:46:15;102089.97;;;15.42;76.69
28921;BME280;16035;53.594;9.952;2022-10-31T08:48:17;102083.13;;;15.45;76.63
28921;BME280;16035;53.594;9.952;2022-10-31T08:50:18;102087.78;;;15.44;76.40
28921;BME280;16035;53.594;9.952;2022-10-31T08:52:18;102091.06;;;15.41;76.07
28921;BME280;16035;53.594;9.952;2022-10-31T08:54:18;102090.75;;;15.37;76.56
28921;BME280;16035;53.594;9.952;2022-10-31T08:56:19;102081.16;;;15.40;76.52
28921;BME280;16035;53.594;9.952;2022-10-31T08:58:19;102086.66;;;15.40;76.80
28921;BME280;16035;53.594;9.952;2022-10-31T09:00:20;102082.06;;;15.46;76.27
28921;BME280;16035;53.594;9.952;2022-10-31T09:02:20;102074.09;;;15.44;76.09
28921;BME280;16035;53.594;9.952;2022-10-31T09:04:21;102076.81;;;15.44;76.46
28921;BME280;16035;53.594;9.952;2022-10-31T09:06:21;102085.13;;;15.49;76.93
28921;BME280;16035;53.594;9.952;2022-10-31T09:08:22;102092.28;;;15.55;76.46
28921;BME280;16035;53.594;9.952;2022-10-31T09:10:24;102076.38;;;15.57;76.58
28921;BME280;16035;53.594;9.952;2022-10-31T09:12:24;102076.16;;;15.59;76.53
28921;BME280;16035;53.594;9.952;2022-10-31T09:14:25;102071.72;;;15.58;76.30
28921;BME280;16035;53.594;9.952;2022-10-31T09:16:25;102068.16;;;15.57;76.46
28921;BME280;16035;53.594;9.952;2022-10-31T09:18:26;102067.09;;;15.58;76.76
28921;BME280;16035;53.594;9.952;2022-10-31T09:20:33;102072.84;;;15.62;76.75
28921;BME280;16035;53.594;9.952;2022-10-31T09:22:33;102069.88;;;15.63;76.27
28921;BME280;16035;53.594;9.952;2022-10-31T09:24:34;102066.56;;;15.61;76.31
28921;BME280;16035;53.594;9.952;2022-10-31T09:26:34;102068.19;;;15.62;76.23
28921;BME280;16035;53.594;9.952;2022-10-31T09:28:34;102068.19;;;15.62;76.47
28921;BME280;16035;53.594;9.952;2022-10-31T09:30:35;102063.88;;;15.66;76.42
28921;BME280;16035;53.594;9.952;2022-10-31T09:32:36;102060.91;;;15.68;76.13
28921;BME280;16035;53.594;9.952;2022-10-31T09:34:38;102070.75;;;15.69;76.45
28921;BME280;16035;53.594;9.952;2022-10-31T09:36:38;102059.53;;;15.71;76.38
28921;BME280;16035;53.594;9.952;2022-10-31T09:38:39;102062.56;;;15.74;76.15
28921;BME280;16035;53.594;9.952;2022-10-31T09:40:40;102059.00;;;15.74;76.02
28921;BME280;16035;53.594;9.952;2022-10-31T09:43:03;102062.31;;;15.76;76.11
28921;BME280;16035;53.594;9.952;2022-10-31T09:45:21;102069.47;;;15.77;75.96
28921;BME280;16035;53.594;9.952;2022-10-31T09:47:40;102074.94;;;15.77;76.01
28921;BME280;16035;53.594;9.952;2022-10-31T09:52:20;102085.88;;;15.72;75.76
28921;BME280;16035;53.594;9.952;2022-10-31T09:54:32;102086.13;;;15.70;75.79
28921;BME280;16035;53.594;9.952;2022-10-31T09:56:35;102083.69;;;15.74;76.14
28921;BME280;16035;53.594;9.952;2022-10-31T09:58:41;102091.06;;;15.73;75.89
28921;BME280;16035;53.594;9.952;2022-10-31T10:00:43;102091.91;;;15.74;76.06
28921;BME280;16035;53.594;9.952;2022-10-31T10:05:04;102104.50;;;15.75;76.12
28921;BME280;16035;53.594;9.952;2022-10-31T10:09:16;102091.63;;;15.75;75.97
28921;BME280;16035;53.594;9.952;2022-10-31T10:11:30;102094.63;;;15.74;76.08
28921;BME280;16035;53.594;9.952;2022-10-31T10:20:49;102090.31;;;15.83;75.54
28921;BME280;16035;53.594;9.952;2022-10-31T10:27:46;102090.59;;;15.81;75.52
28921;BME280;16035;53.594;9.952;2022-10-31T10:32:01;102095.28;;;15.86;75.68
28921;BME280;16035;53.594;9.952;2022-10-31T10:36:13;102092.56;;;15.91;75.54
28921;BME280;16035;53.594;9.952;2022-10-31T10:40:20;102080.03;;;16.00;75.45
28921;BME280;16035;53.594;9.952;2022-10-31T10:42:24;102077.59;;;16.04;75.49
28921;BME280;16035;53.594;9.952;2022-10-31T10:44:47;102080.03;;;16.05;75.71
28921;BME280;16035;53.594;9.952;2022-10-31T10:47:07;102075.41;;;16.11;75.04
28921;BME280;16035;53.594;9.952;2022-10-31T10:51:59;102070.50;;;16.13;74.91
28921;BME280;16035;53.594;9.952;2022-10-31T10:56:20;102055.47;;;16.26;74.62
28921;BME280;16035;53.594;9.952;2022-10-31T10:58:26;102053.59;;;16.36;74.45
28921;BME280;16035;53.594;9.952;2022-10-31T11:00:30;102052.50;;;16.42;74.57
28921;BME280;16035;53.594;9.952;2022-10-31T11:02:32;102056.16;;;16.53;74.50
28921;BME280;16035;53.594;9.952;2022-10-31T11:04:34;102058.63;;;16.60;74.23
28921;BME280;16035;53.594;9.952;2022-10-31T11:06:35;102055.63;;;16.61;74.26
28921;BME280;16035;53.594;9.952;2022-10-31T11:08:36;102057.81;;;16.64;73.67
28921;BME280;16035;53.594;9.952;2022-10-31T11:10:37;102059.19;;;16.62;73.85
28921;BME280;16035;53.594;9.952;2022-10-31T11:12:37;102052.59;;;16.63;73.92
28921;BME280;16035;53.594;9.952;2022-10-31T11:14:48;102056.16;;;16.63;73.86
28921;BME280;16035;53.594;9.952;2022-10-31T11:16:54;102046.81;;;16.59;73.76
28921;BME280;16035;53.594;9.952;2022-10-31T11:21:28;102049.56;;;16.64;73.50
28921;BME280;16035;53.594;9.952;2022-10-31T11:23:29;102041.09;;;16.71;73.99
28921;BME280;16035;53.594;9.952;2022-10-31T11:25:29;102039.75;;;16.74;73.90
28921;BME280;16035;53.594;9.952;2022-10-31T11:27:29;102040.28;;;16.71;73.46
28921;BME280;16035;53.594;9.952;2022-10-31T11:29:30;102045.78;;;16.71;73.58
28921;BME280;16035;53.594;9.952;2022-10-31T11:31:31;102037.00;;;16.74;73.21
28921;BME280;16035;53.594;9.952;2022-10-31T11:33:36;102039.75;;;16.74;73.32
28921;BME280;16035;53.594;9.952;2022-10-31T11:35:39;102032.91;;;16.76;73.06
28921;BME280;16035;53.594;9.952;2022-10-31T11:37:42;102029.59;;;16.74;73.22